createdAt,value
2022-08-03T00:02:27.280Z,86.83
2022-08-03T00:04:56.529Z,86.02
2022-08-03T00:07:25.463Z,86.40
2022-08-03T00:09:54.401Z,86.57
2022-08-03T00:12:23.886Z,86.29
2022-08-03T00:14:52.745Z,86.56
2022-08-03T00:17:24.957Z,85.75
2022-08-03T00:19:55.876Z,86.31
2022-08-03T00:22:25.528Z,87.11
2022-08-03T00:24:54.781Z,86.76
2022-08-03T00:27:23.972Z,86.45
2022-08-03T00:29:59.958Z,86.82
2022-08-03T00:32:33.553Z,86.41
2022-08-03T00:35:05.694Z,86.60
2022-08-03T00:37:41.039Z,86.99
2022-08-03T00:40:15.650Z,86.50
2022-08-03T00:42:56.202Z,86.52
2022-08-03T00:45:27.897Z,87.24
2022-08-03T00:47:59.389Z,87.10
2022-08-03T00:50:31.556Z,87.70
2022-08-03T00:53:02.204Z,87.72
2022-08-03T00:55:32.142Z,87.96
2022-08-03T00:58:06.632Z,87.88
2022-08-03T01:00:39.131Z,87.66
2022-08-03T01:03:12.018Z,87.95
2022-08-03T01:05:51.234Z,87.45
2022-08-03T01:08:30.263Z,87.53
2022-08-03T01:11:06.810Z,87.62
2022-08-03T01:14:04.367Z,87.73
2022-08-03T01:16:45.146Z,88.40
2022-08-03T01:19:38.087Z,88.28
2022-08-03T01:22:56.903Z,88.97
2022-08-03T01:25:37.145Z,87.29
2022-08-03T01:28:27.330Z,88.05
2022-08-03T01:31:05.840Z,87.66
2022-08-03T01:33:41.310Z,90.89
2022-08-03T01:36:16.270Z,89.89
2022-08-03T01:38:51.056Z,89.35
2022-08-03T01:41:24.344Z,88.82
2022-08-03T01:44:29.090Z,88.64
2022-08-03T01:46:49.283Z,90.78
2022-08-03T01:49:19.509Z,88.66
2022-08-03T01:52:03.317Z,90.81
2022-08-03T01:54:38.350Z,92.37
2022-08-03T01:57:08.359Z,91.52
2022-08-03T01:59:39.045Z,90.54
2022-08-03T02:02:29.789Z,89.30
2022-08-03T02:05:02.179Z,90.79
2022-08-03T02:07:32.258Z,89.90
2022-08-03T02:10:03.020Z,89.17
2022-08-03T02:12:34.576Z,88.76
2022-08-03T02:15:04.423Z,89.43
2022-08-03T02:17:38.974Z,89.88
2022-08-03T02:20:14.006Z,89.28
2022-08-03T02:22:44.906Z,89.65
2022-08-03T02:25:16.056Z,88.95
2022-08-03T02:27:53.068Z,89.38
2022-08-03T02:30:23.999Z,90.33
2022-08-03T02:32:59.397Z,89.80
2022-08-03T02:35:32.219Z,90.58
2022-08-03T02:38:05.902Z,90.20
2022-08-03T02:40:37.195Z,90.77
2022-08-03T02:43:13.131Z,90.34
2022-08-03T02:45:46.726Z,90.66
2022-08-03T02:48:22.791Z,88.94
2022-08-03T02:50:56.848Z,90.90
2022-08-03T02:53:26.666Z,91.25
2022-08-03T02:55:58.347Z,90.79
2022-08-03T02:58:30.297Z,89.62
2022-08-03T03:01:00.834Z,91.14
2022-08-03T03:03:31.933Z,92.22
2022-08-03T03:06:06.742Z,91.55
2022-08-03T03:08:39.516Z,92.14
2022-08-03T03:11:10.577Z,90.74
2022-08-03T03:13:41.206Z,91.83
2022-08-03T03:16:11.142Z,92.97
2022-08-03T03:18:42.380Z,91.95
2022-08-03T03:21:12.577Z,91.08
2022-08-03T03:23:43.611Z,91.67
2022-08-03T03:26:15.726Z,92.24
2022-08-03T03:28:45.491Z,92.18
2022-08-03T03:31:14.587Z,92.06
2022-08-03T03:33:46.049Z,92.01
2022-08-03T03:36:15.644Z,91.61
2022-08-03T03:38:44.806Z,91.41
2022-08-03T03:41:14.713Z,91.63
2022-08-03T03:43:44.771Z,92.59
2022-08-03T03:46:15.102Z,91.20
2022-08-03T03:48:46.443Z,92.00
2022-08-03T03:51:16.627Z,91.15
2022-08-03T03:53:57.778Z,90.59
2022-08-03T03:56:27.304Z,90.96
2022-08-03T03:58:56.704Z,91.59
2022-08-03T04:01:25.927Z,91.32
2022-08-03T04:03:56.446Z,91.16
2022-08-03T04:06:43.225Z,92.44
2022-08-03T04:09:29.899Z,92.78
2022-08-03T04:12:03.067Z,92.39
2022-08-03T04:14:37.427Z,92.56
2022-08-03T04:17:10.331Z,92.03
2022-08-03T04:19:46.256Z,94.34
2022-08-03T04:22:21.541Z,93.72
2022-08-03T04:24:53.669Z,93.73
2022-08-03T04:27:27.843Z,93.48
2022-08-03T04:29:59.470Z,92.84
2022-08-03T04:32:30.232Z,92.55
2022-08-03T04:35:00.841Z,95.11
2022-08-03T04:37:40.582Z,92.68
2022-08-03T04:40:15.712Z,92.57
2022-08-03T04:42:46.815Z,92.58
2022-08-03T04:45:17.921Z,93.03
2022-08-03T04:47:47.621Z,92.15
2022-08-03T04:50:21.602Z,91.34
2022-08-03T04:52:51.364Z,91.87
2022-08-03T04:55:28.890Z,92.51
2022-08-03T04:57:58.506Z,91.74
2022-08-03T05:00:28.030Z,91.44
2022-08-03T05:02:57.288Z,91.77
2022-08-03T05:05:49.779Z,93.43
2022-08-03T05:08:20.381Z,92.24
2022-08-03T05:10:59.408Z,91.73
2022-08-03T05:13:28.817Z,90.40
2022-08-03T05:15:57.977Z,91.25
2022-08-03T05:18:26.864Z,90.84
2022-08-03T05:20:57.783Z,90.88
2022-08-03T05:23:26.901Z,92.82
2022-08-03T05:25:55.895Z,92.93
2022-08-03T05:28:24.776Z,92.14
2022-08-03T05:30:53.649Z,91.65
2022-08-03T05:33:23.254Z,91.14
2022-08-03T05:36:01.011Z,90.06
2022-08-03T05:38:37.431Z,89.19
2022-08-03T05:41:23.668Z,88.41
2022-08-03T05:43:56.759Z,89.27
2022-08-03T05:46:26.119Z,89.40
2022-08-03T05:48:55.196Z,89.14
2022-08-03T05:51:24.325Z,87.85
2022-08-03T05:53:54.624Z,87.07
2022-08-03T05:56:25.955Z,86.29
2022-08-03T05:58:55.021Z,87.72
2022-08-03T06:01:24.590Z,87.50
2022-08-03T06:03:53.838Z,87.67
2022-08-03T06:06:23.126Z,86.99
2022-08-03T06:08:54.483Z,86.61
2022-08-03T06:11:24.965Z,86.75
2022-08-03T06:13:54.172Z,87.82
2022-08-03T06:16:23.278Z,86.39
2022-08-03T06:19:00.213Z,87.42
2022-08-03T06:21:29.542Z,86.17
2022-08-03T06:24:02.550Z,86.43
2022-08-03T06:26:31.906Z,84.86
2022-08-03T06:29:00.994Z,86.13
2022-08-03T06:31:33.812Z,85.17
2022-08-03T06:34:33.553Z,84.84
2022-08-03T06:36:58.483Z,86.12
2022-08-03T06:39:32.800Z,86.48
2022-08-03T06:42:01.646Z,84.44
2022-08-03T06:44:30.916Z,84.45
2022-08-03T06:47:00.044Z,83.31
2022-08-03T06:49:31.289Z,83.88
2022-08-03T06:52:04.085Z,83.22
2022-08-03T06:54:37.866Z,83.34
2022-08-03T06:57:08.486Z,82.29
2022-08-03T07:00:08.022Z,83.53
2022-08-03T07:02:28.242Z,82.00
2022-08-03T07:04:58.818Z,79.77
2022-08-03T07:07:27.678Z,76.65
2022-08-03T07:09:59.065Z,77.79
2022-08-03T07:12:30.765Z,77.78
2022-08-03T07:15:02.135Z,76.71
2022-08-03T07:17:33.365Z,75.11
2022-08-03T07:20:05.274Z,70.23
2022-08-03T07:22:34.747Z,69.67
2022-08-03T07:25:06.354Z,64.27
2022-08-03T07:27:35.677Z,63.70
2022-08-03T07:30:10.596Z,63.19
2022-08-03T07:32:50.204Z,60.56
2022-08-03T07:35:25.290Z,60.93
2022-08-03T07:37:55.148Z,61.43
2022-08-03T07:40:27.006Z,62.04
2022-08-03T07:43:03.319Z,61.71
2022-08-03T07:45:34.439Z,58.09
2022-08-03T07:48:06.403Z,55.64
2022-08-03T07:50:40.852Z,55.28
2022-08-03T07:53:09.957Z,55.90
2022-08-03T07:56:11.403Z,55.29
2022-08-03T07:58:40.734Z,55.58
2022-08-03T08:01:09.906Z,57.11
2022-08-03T08:04:02.539Z,57.47
2022-08-03T08:06:33.411Z,56.15
2022-08-03T08:09:03.278Z,57.63
2022-08-03T08:11:38.175Z,57.73
2022-08-03T08:14:09.870Z,58.21
2022-08-03T08:16:39.835Z,56.84
2022-08-03T08:19:08.830Z,56.48
2022-08-03T08:21:53.754Z,57.69
2022-08-03T08:24:32.363Z,58.32
2022-08-03T08:27:05.555Z,60.54
2022-08-03T08:29:35.103Z,60.21
2022-08-03T08:32:16.503Z,59.75
2022-08-03T08:34:45.863Z,61.55
2022-08-03T08:37:51.011Z,59.66
2022-08-03T08:40:26.238Z,60.21
2022-08-03T08:42:58.857Z,59.39
2022-08-03T08:45:31.897Z,58.27
2022-08-03T08:48:08.427Z,61.04
2022-08-03T08:50:43.876Z,60.97
2022-08-03T08:53:38.364Z,59.33
2022-08-03T08:56:32.989Z,57.73
2022-08-03T08:59:04.191Z,59.70
2022-08-03T09:01:34.004Z,57.53
2022-08-03T09:04:09.727Z,60.21
2022-08-03T09:07:18.636Z,57.60
2022-08-03T09:10:10.862Z,57.57
2022-08-03T09:12:45.921Z,57.19
2022-08-03T09:15:23.006Z,58.01
2022-08-03T09:17:53.993Z,57.68
2022-08-03T09:20:25.581Z,57.43
2022-08-03T09:23:51.882Z,56.94
2022-08-03T09:26:09.253Z,54.84
2022-08-03T09:29:00.407Z,56.04
2022-08-03T09:31:41.384Z,52.96
2022-08-03T09:34:15.777Z,54.57
2022-08-03T09:36:47.567Z,54.07
2022-08-03T09:39:18.305Z,54.16
2022-08-03T09:41:51.682Z,54.36
2022-08-03T09:44:45.762Z,54.33
2022-08-03T09:47:44.653Z,54.07
2022-08-03T09:50:19.256Z,53.67
2022-08-03T09:52:52.582Z,51.15
2022-08-03T09:56:34.516Z,52.09
2022-08-03T09:58:32.924Z,51.39
2022-08-03T10:01:08.037Z,51.74
2022-08-03T10:04:05.734Z,51.27
2022-08-03T10:06:34.864Z,50.69
2022-08-03T10:09:09.549Z,50.57
2022-08-03T10:11:41.932Z,52.70
2022-08-03T10:14:19.462Z,51.31
2022-08-03T10:16:50.441Z,53.33
2022-08-03T10:19:25.709Z,52.10
2022-08-03T10:21:59.542Z,49.83
2022-08-03T10:24:32.484Z,49.06
2022-08-03T10:27:13.845Z,47.59
2022-08-03T10:29:53.328Z,49.21
2022-08-03T10:32:30.133Z,48.97
2022-08-03T10:35:20.971Z,48.68
2022-08-03T10:38:00.535Z,49.62
2022-08-03T10:40:47.994Z,49.22
2022-08-03T10:43:28.213Z,52.51
2022-08-03T10:46:20.860Z,50.09
2022-08-03T10:48:55.879Z,49.37
2022-08-03T10:51:32.259Z,45.70
2022-08-03T10:54:04.078Z,47.97
2022-08-03T10:57:07.908Z,47.16
2022-08-03T11:00:04.946Z,45.80
2022-08-03T11:03:17.015Z,44.90
2022-08-03T11:05:47.578Z,45.65
2022-08-03T11:08:24.858Z,44.48
2022-08-03T11:10:57.277Z,46.16
2022-08-03T11:13:31.811Z,44.74
2022-08-03T11:16:07.774Z,46.47
2022-08-03T11:18:57.507Z,44.71
2022-08-03T11:21:54.755Z,45.46
2022-08-03T11:25:02.147Z,46.09
2022-08-03T11:27:33.652Z,44.37
2022-08-03T11:30:07.666Z,45.89
2022-08-03T11:32:59.091Z,42.85
2022-08-03T11:35:31.405Z,43.69
2022-08-03T11:38:07.271Z,44.14
2022-08-03T11:40:55.534Z,42.43
2022-08-03T11:43:46.805Z,44.88
2022-08-03T11:46:28.538Z,41.57
2022-08-03T11:49:10.819Z,42.26
2022-08-03T11:51:40.960Z,40.75
2022-08-03T11:54:11.515Z,39.67
2022-08-03T11:56:50.754Z,42.38
2022-08-03T11:59:22.352Z,40.50
2022-08-03T12:01:52.282Z,39.86
2022-08-03T12:04:21.771Z,38.56
2022-08-03T12:07:01.409Z,38.65
2022-08-03T12:09:30.836Z,39.49
2022-08-03T12:12:01.464Z,38.21
2022-08-03T12:14:49.417Z,38.85
2022-08-03T12:17:20.692Z,37.07
2022-08-03T12:19:50.125Z,38.67
2022-08-03T12:22:33.781Z,36.65
2022-08-03T12:25:02.931Z,37.58
2022-08-03T12:27:34.331Z,34.79
2022-08-03T12:30:04.836Z,38.41
2022-08-03T12:32:34.036Z,36.26
2022-08-03T12:35:05.207Z,34.41
2022-08-03T12:37:34.786Z,34.66
2022-08-03T12:40:10.383Z,33.83
2022-08-03T12:42:41.874Z,34.41
2022-08-03T12:45:22.368Z,32.21
2022-08-03T12:47:57.314Z,32.95
2022-08-03T12:50:31.305Z,33.90
2022-08-03T12:53:01.828Z,32.58
2022-08-03T12:55:56.353Z,33.37
2022-08-03T12:58:38.871Z,32.98
2022-08-03T13:01:10.879Z,32.98
2022-08-03T13:03:49.602Z,30.90
2022-08-03T13:06:21.527Z,31.12
2022-08-03T13:08:51.909Z,30.28
2022-08-03T13:11:52.502Z,30.10
2022-08-03T13:14:20.000Z,30.69
2022-08-03T13:16:50.455Z,31.10
2022-08-03T13:19:19.472Z,29.99
2022-08-03T13:21:53.362Z,29.97
2022-08-03T13:24:34.116Z,31.08
2022-08-03T13:28:03.447Z,29.92
2022-08-03T13:29:56.364Z,30.08
2022-08-03T13:32:25.863Z,30.35
2022-08-03T13:34:55.305Z,29.58
2022-08-03T13:37:25.360Z,27.03
2022-08-03T13:39:58.893Z,29.55
2022-08-03T13:42:31.129Z,28.28
2022-08-03T13:45:02.933Z,27.69
2022-08-03T13:47:32.037Z,27.81
2022-08-03T13:50:03.191Z,28.18
2022-08-03T13:52:34.661Z,30.35
2022-08-03T13:55:04.616Z,28.53
2022-08-03T13:58:04.029Z,27.01
2022-08-03T14:00:28.906Z,27.40
2022-08-03T14:03:06.510Z,27.92
2022-08-03T14:05:44.284Z,27.60
2022-08-03T14:08:14.495Z,27.18
2022-08-03T14:10:45.880Z,27.42
2022-08-03T14:13:17.564Z,27.70
2022-08-03T14:15:51.026Z,28.12
2022-08-03T14:18:28.445Z,26.95
2022-08-03T14:21:06.359Z,29.07
2022-08-03T14:23:37.585Z,26.30
2022-08-03T14:26:08.169Z,28.01
2022-08-03T14:28:39.806Z,28.10
2022-08-03T14:32:09.144Z,29.96
2022-08-03T14:35:07.517Z,27.22
2022-08-03T14:37:57.723Z,27.33
2022-08-03T14:40:35.557Z,28.67
2022-08-03T14:43:04.798Z,27.88
2022-08-03T14:45:34.416Z,28.18
2022-08-03T14:50:27.778Z,27.81
2022-08-03T14:50:55.539Z,27.57
2022-08-03T14:53:25.218Z,28.89
2022-08-03T14:55:54.418Z,27.92
2022-08-03T14:58:26.850Z,26.75
2022-08-03T15:00:57.571Z,28.52
2022-08-03T15:03:28.094Z,28.54
2022-08-03T15:05:58.357Z,29.93
2022-08-03T15:08:28.122Z,29.12
2022-08-03T15:10:57.599Z,29.69
2022-08-03T15:13:26.957Z,29.24
2022-08-03T15:15:57.801Z,29.42
2022-08-03T15:18:28.467Z,29.65
2022-08-03T15:20:57.523Z,29.85
2022-08-03T15:23:26.507Z,29.61
2022-08-03T15:26:02.192Z,31.29
2022-08-03T15:28:44.298Z,30.41
2022-08-03T15:31:13.698Z,30.29
2022-08-03T15:33:50.385Z,31.85
2022-08-03T15:36:19.748Z,31.21
2022-08-03T15:38:49.229Z,31.39
2022-08-03T15:41:18.625Z,30.60
2022-08-03T15:43:47.900Z,32.33
2022-08-03T15:46:29.172Z,31.95
2022-08-03T15:49:00.602Z,32.56
2022-08-03T15:51:29.834Z,32.81
2022-08-03T15:53:58.736Z,33.30
2022-08-03T15:56:27.663Z,31.76
2022-08-03T15:59:09.648Z,32.58
2022-08-03T16:01:42.993Z,33.37
2022-08-03T16:04:13.663Z,33.56
2022-08-03T16:06:42.504Z,33.79
2022-08-03T16:09:23.426Z,33.39
2022-08-03T16:12:01.023Z,33.25
2022-08-03T16:14:36.653Z,33.64
2022-08-03T16:17:07.623Z,34.69
2022-08-03T16:19:38.244Z,34.90
2022-08-03T16:22:08.770Z,34.44
2022-08-03T16:24:38.030Z,34.51
2022-08-03T16:27:17.467Z,34.79
2022-08-03T16:29:58.581Z,35.30
2022-08-03T16:32:27.600Z,35.17
2022-08-03T16:34:57.845Z,36.07
2022-08-03T16:37:56.066Z,35.58
2022-08-03T16:40:17.256Z,36.45
2022-08-03T16:42:48.437Z,34.52
2022-08-03T16:45:18.269Z,35.59
2022-08-03T16:47:47.133Z,35.07
2022-08-03T16:50:31.789Z,35.72
2022-08-03T16:53:00.798Z,36.05
2022-08-03T16:55:48.936Z,36.77
2022-08-03T16:58:19.636Z,37.36
2022-08-03T17:01:21.135Z,38.18
2022-08-03T17:04:01.698Z,37.82
2022-08-03T17:06:38.460Z,35.96
2022-08-03T17:09:19.110Z,36.63
2022-08-03T17:11:52.884Z,37.48
2022-08-03T17:14:28.342Z,38.60
2022-08-03T17:17:01.849Z,37.83
2022-08-03T17:19:34.936Z,37.78
2022-08-03T17:22:13.576Z,38.37
2022-08-03T17:24:47.953Z,38.27
2022-08-03T17:28:50.361Z,38.35
2022-08-03T17:30:12.272Z,38.17
2022-08-03T17:32:56.827Z,38.87
2022-08-03T17:35:34.504Z,39.36
2022-08-03T17:38:13.833Z,39.78
2022-08-03T17:40:49.998Z,39.21
2022-08-03T17:44:13.249Z,40.51
2022-08-03T17:46:12.123Z,41.05
2022-08-03T17:48:42.284Z,40.95
2022-08-03T17:51:23.948Z,40.80
2022-08-03T17:54:18.219Z,39.88
2022-08-03T17:56:59.161Z,41.38
2022-08-03T17:59:59.052Z,40.28
2022-08-03T18:02:59.030Z,40.17
2022-08-03T18:06:11.163Z,40.57
2022-08-03T18:08:25.547Z,41.32
2022-08-03T18:11:14.626Z,41.15
2022-08-03T18:13:57.880Z,43.13
2022-08-03T18:16:37.589Z,42.89
2022-08-03T18:19:13.696Z,44.25
2022-08-03T18:22:03.569Z,44.75
2022-08-03T18:24:33.517Z,45.29
2022-08-03T18:27:05.004Z,45.71
2022-08-03T18:29:37.365Z,46.31
2022-08-03T18:32:13.676Z,47.36
2022-08-03T18:34:53.342Z,47.38
2022-08-03T18:37:26.271Z,48.97
2022-08-03T18:39:58.561Z,48.96
2022-08-03T18:42:32.161Z,49.24
2022-08-03T18:45:14.947Z,49.46
2022-08-03T18:48:05.137Z,50.09
2022-08-03T18:50:39.075Z,50.25
2022-08-03T18:53:19.671Z,50.38
2022-08-03T18:56:02.216Z,50.70
2022-08-03T18:58:41.563Z,50.88
2022-08-03T19:01:58.091Z,52.16
2022-08-03T19:04:13.040Z,52.31
2022-08-03T19:06:46.006Z,52.22
2022-08-03T19:09:28.162Z,53.16
2022-08-03T19:12:12.468Z,52.69
2022-08-03T19:14:56.330Z,53.57
2022-08-03T19:17:29.526Z,53.54
2022-08-03T19:20:01.453Z,53.97
2022-08-03T19:22:32.128Z,53.83
2022-08-03T19:25:02.779Z,54.15
2022-08-03T19:27:33.542Z,53.73
2022-08-03T19:30:20.018Z,54.18
2022-08-03T19:32:56.254Z,54.60
2022-08-03T19:35:55.514Z,54.27
2022-08-03T19:38:28.441Z,54.26
2022-08-03T19:41:03.234Z,55.18
2022-08-03T19:43:52.934Z,55.28
2022-08-03T19:46:31.114Z,55.96
2022-08-03T19:49:10.676Z,56.75
2022-08-03T19:51:58.519Z,56.84
2022-08-03T19:54:39.558Z,57.15
2022-08-03T19:57:26.817Z,57.26
2022-08-03T19:59:57.787Z,57.88
2022-08-03T20:02:29.853Z,57.85
2022-08-03T20:05:00.708Z,58.20
2022-08-03T20:07:32.396Z,58.67
2022-08-03T20:10:04.295Z,58.94
2022-08-03T20:12:39.455Z,59.39
2022-08-03T20:15:10.823Z,59.90
2022-08-03T20:17:54.649Z,58.63
2022-08-03T20:20:30.677Z,59.80
2022-08-03T20:23:02.048Z,61.07
2022-08-03T20:25:38.579Z,60.55
2022-08-03T20:28:15.231Z,61.05
2022-08-03T20:30:47.593Z,61.40
2022-08-03T20:33:19.526Z,61.43
2022-08-03T20:41:25.353Z,62.13
2022-08-03T21:40:06.194Z,62.54
2022-08-03T21:42:35.539Z,61.61
2022-08-03T21:45:07.354Z,61.56
2022-08-03T21:47:40.904Z,61.84
2022-08-03T21:50:12.549Z,62.05
2022-08-03T21:52:45.072Z,61.51
2022-08-03T21:55:20.520Z,62.04
2022-08-03T21:57:54.787Z,62.03
2022-08-03T22:00:25.263Z,62.30
2022-08-03T22:03:03.284Z,63.44
2022-08-03T22:05:46.285Z,63.29
2022-08-03T22:08:18.003Z,62.98
2022-08-03T22:10:49.918Z,63.28
2022-08-03T22:13:44.109Z,63.71
2022-08-03T22:16:12.870Z,63.28
2022-08-03T22:18:45.820Z,62.95
2022-08-03T22:21:54.485Z,64.17
2022-08-03T22:46:14.399Z,66.87
2022-08-03T22:48:51.206Z,67.51
2022-08-03T22:52:15.709Z,67.54
2022-08-03T23:26:13.467Z,70.51
2022-08-03T23:38:22.808Z,70.73
